Time;durP1;ratioP1;P1;durP2;ratioP2;P2;SDS_P1;SDS_P2;PMS_P1;PMS_P2;Temp;Humidity;BMP_temperature;BMP_pressure;BME280_temperature;BME280_humidity;BME280_pressure;Samples;Min_cycle;Max_cycle;Signal;HPM_P1;HPM_P2
2023/12/22 00:01:11;;;;;;;15.90;3.23;;;4.40;99.90;;;;;;4880444;29;20048;-91
2023/12/22 00:03:37;;;;;;;11.23;2.30;;;4.50;99.90;;;;;;4896466;29;20060;-90
2023/12/22 00:06:03;;;;;;;12.57;2.40;;;5.80;99.90;;;;;;4880408;29;20135;-90
2023/12/22 00:08:28;;;;;;;16.60;2.57;;;4.00;99.90;;;;;;4880905;29;20135;-91
2023/12/22 00:10:54;;;;;;;13.73;2.00;;;3.80;99.90;;;;;;4880565;29;20051;-89
2023/12/22 00:13:20;;;;;;;11.60;2.17;;;3.50;99.90;;;;;;4896883;29;20056;-90
2023/12/22 00:15:45;;;;;;;13.73;2.90;;;3.80;99.90;;;;;;4880841;29;20449;-90
2023/12/22 00:18:11;;;;;;;11.57;2.67;;;;;;;;;;4881959;29;20079;-90
2023/12/22 00:21:14;;;;;;;12.97;2.77;;;3.70;99.90;;;;;;4881620;29;20052;-91
2023/12/22 00:23:58;;;;;;;11.30;3.17;;;4.00;99.90;;;;;;4880434;29;20082;-91
2023/12/22 00:26:24;;;;;;;;;;;5.40;99.90;;;;;;4882047;29;20051;-91
2023/12/22 00:28:53;;;;;;;16.23;3.00;;;6.10;99.90;;;;;;4881125;29;20017;-91
2023/12/22 00:31:19;;;;;;;12.20;2.27;;;4.70;99.90;;;;;;4882215;29;20052;-90
2023/12/22 00:33:44;;;;;;;13.93;2.40;;;6.20;99.90;;;;;;4886011;29;20379;-92
2023/12/22 00:36:13;;;;;;;14.90;2.73;;;6.20;99.90;;;;;;4912022;23;20452;-90
2023/12/22 00:38:41;;;;;;;19.30;3.33;;;4.60;99.90;;;;;;4899773;29;20048;-90
2023/12/22 00:41:13;;;;;;;15.93;3.80;;;4.20;99.90;;;;;;4899456;29;20412;-92
2023/12/22 00:43:39;;;;;;;11.97;2.50;;;4.40;99.90;;;;;;4898814;29;20048;-91
2023/12/22 00:46:08;;;;;;;12.53;2.20;;;5.30;99.90;;;;;;4917887;29;20075;-90
2023/12/22 00:48:36;;;;;;;15.83;3.13;;;6.60;99.90;;;;;;4913366;29;20044;-91
2023/12/22 00:51:02;;;;;;;13.93;2.80;;;4.80;99.90;;;;;;4899230;29;20167;-91
2023/12/22 00:53:46;;;;;;;18.27;3.00;;;4.70;99.90;;;;;;4900342;29;20412;-92
2023/12/22 00:56:21;;;;;;;14.82;2.70;;;4.20;99.90;;;;;;4891407;29;20505;-92
2023/12/22 00:58:55;;;;;;;16.67;3.30;;;6.30;99.90;;;;;;4899461;29;20044;-91
2023/12/22 01:01:21;;;;;;;17.80;3.27;;;5.60;99.90;;;;;;4902529;29;20040;-92
2023/12/22 01:03:59;;;;;;;15.67;2.60;;;4.80;99.90;;;;;;4919359;29;20086;-91
2023/12/22 01:06:24;;;;;;;16.50;2.80;;;5.00;99.90;;;;;;4905468;29;20036;-91
2023/12/22 01:08:50;;;;;;;15.07;2.83;;;6.30;99.90;;;;;;4903022;29;20059;-90
2023/12/22 01:11:18;;;;;;;15.03;2.73;;;4.80;99.90;;;;;;4901756;29;20131;-92
2023/12/22 01:13:44;;;;;;;16.23;2.80;;;5.40;99.90;;;;;;4922220;29;20040;-92
2023/12/22 01:16:15;;;;;;;14.10;2.47;;;4.40;99.90;;;;;;4902718;29;20408;-92
2023/12/22 01:18:56;;;;;;;7.70;1.80;;;4.40;99.90;;;;;;4903279;29;20083;-92
2023/12/22 01:21:22;;;;;;;17.63;2.70;;;5.10;99.90;;;;;;4903228;29;20051;-91
2023/12/22 01:23:47;;;;;;;12.40;2.50;;;5.40;99.90;;;;;;4903417;29;20044;-92
2023/12/22 01:26:22;;;;;;;17.50;2.93;;;5.60;99.90;;;;;;4903562;29;20178;-91
2023/12/22 01:28:48;;;;;;;13.20;2.70;;;3.60;99.90;;;;;;4902970;29;20052;-93
2023/12/22 01:31:13;;;;;;;12.17;2.40;;;4.30;99.90;;;;;;4902394;29;20044;-92
2023/12/22 01:33:39;;;;;;;13.77;2.40;;;5.60;99.90;;;;;;4902565;29;20079;-92
2023/12/22 01:36:05;;;;;;;14.80;2.67;;;3.80;99.90;;;;;;4892991;29;20071;-92
2023/12/22 01:38:33;;;;;;;13.93;2.63;;;4.00;99.90;;;;;;4883289;29;20052;-92
2023/12/22 01:40:59;;;;;;;16.47;2.60;;;5.70;99.90;;;;;;4897661;29;20409;-93
2023/12/22 01:43:24;;;;;;;19.87;3.23;;;5.40;99.90;;;;;;4892285;29;20060;-92
2023/12/22 01:45:57;;;;;;;14.03;2.33;;;4.30;99.90;;;;;;4883626;29;20411;-92
2023/12/22 01:48:31;;;;;;;17.17;2.87;;;5.20;99.90;;;;;;4883932;29;20091;-92
2023/12/22 01:51:04;;;;;;;13.67;2.20;;;4.50;99.90;;;;;;4884208;29;20508;-90
2023/12/22 01:53:52;;;;;;;10.30;1.87;;;5.30;99.90;;;;;;4884333;29;20052;-93
2023/12/22 01:56:36;;;;;;;13.77;2.57;;;3.90;99.90;;;;;;4885049;29;20561;-93
2023/12/22 01:59:14;;;;;;;10.67;1.90;;;4.30;99.90;;;;;;4935278;29;20048;-92
2023/12/22 02:28:03;;;;;;;10.40;1.90;;;5.20;99.90;;;;;;5380273;23;20063;-93
2023/12/22 02:34:20;;;;;;;12.83;2.13;;;4.70;99.90;;;;;;4919478;29;20047;-94
2023/12/22 02:36:48;;;;;;;11.10;2.40;;;5.60;99.90;;;;;;4901503;29;20044;-93
2023/12/22 02:39:43;;;;;;;10.73;2.27;;;6.20;99.90;;;;;;4904651;29;20062;-94
2023/12/22 02:42:09;;;;;;;13.90;2.60;;;5.30;99.90;;;;;;4912192;29;20028;-93
2023/12/22 02:44:35;;;;;;;17.67;3.33;;;5.70;99.90;;;;;;4918024;29;20032;-91
2023/12/22 02:47:07;;;;;;;20.23;6.00;;;6.60;99.90;;;;;;4912185;29;20042;-93
2023/12/22 02:49:34;;;;;;;14.20;2.60;;;6.40;99.90;;;;;;4905750;29;20103;-95
2023/12/22 02:51:59;;;;;;;9.87;1.90;;;7.00;99.90;;;;;;4902088;29;20127;-93
2023/12/22 02:54:39;;;;;;;11.70;2.33;;;5.20;99.90;;;;;;4902598;29;20477;-93
2023/12/22 02:57:08;;;;;;;21.73;2.93;;;5.00;99.90;;;;;;4900738;29;20048;-92
2023/12/22 02:59:34;;;;;;;12.47;2.73;;;6.60;99.90;;;;;;4901432;29;20044;-92
2023/12/22 03:01:59;;;;;;;10.10;2.40;;;6.40;99.90;;;;;;4888632;29;20411;-93
2023/12/22 03:04:25;;;;;;;18.33;3.43;;;6.80;99.90;;;;;;4882233;29;20099;-94
2023/12/22 03:06:51;;;;;;;11.40;2.40;;;5.00;99.90;;;;;;4882877;29;20122;-93
2023/12/22 03:09:16;;;;;;;14.77;2.70;;;5.60;99.90;;;;;;4884562;29;20055;-93
2023/12/22 03:11:42;;;;;;;19.33;2.77;;;4.60;99.90;;;;;;4883358;29;20143;-95
2023/12/22 03:14:09;;;;;;;13.27;2.40;;;5.30;99.90;;;;;;4882577;29;20096;-94
2023/12/22 03:16:35;;;;;;;15.93;3.03;;;4.90;99.90;;;;;;4883035;29;20059;-93
2023/12/22 03:19:01;;;;;;;14.30;2.50;;;5.10;99.90;;;;;;4882638;29;20135;-94
2023/12/22 03:21:27;;;;;;;6.50;1.87;;;5.40;99.90;;;;;;4882124;29;20136;-93
2023/12/22 03:24:05;;;;;;;12.83;2.00;;;5.00;99.90;;;;;;4882705;29;20044;-93
2023/12/22 03:26:30;;;;;;;10.63;2.27;;;4.10;99.90;;;;;;4882270;29;20044;-96
2023/12/22 03:28:56;;;;;;;10.97;2.53;;;6.40;99.90;;;;;;4882753;29;20108;-95
2023/12/22 03:31:31;;;;;;;11.63;1.93;;;5.00;99.90;;;;;;4882810;29;20088;-94
2023/12/22 03:33:57;;;;;;;10.30;1.80;;;7.10;99.90;;;;;;4882527;29;20111;-94
2023/12/22 03:36:31;;;;;;;9.90;1.93;;;5.40;99.90;;;;;;4882849;29;20052;-94
2023/12/22 03:38:56;;;;;;;14.60;2.30;;;5.30;99.90;;;;;;4883284;29;20044;-94
2023/12/22 03:41:22;;;;;;;11.10;1.70;;;6.70;99.90;;;;;;4883049;29;20046;-93
2023/12/22 03:43:48;;;;;;;15.13;2.13;;;5.60;99.90;;;;;;4883231;29;20076;-93
2023/12/22 03:46:14;;;;;;;7.77;1.70;;;6.40;99.90;;;;;;4882122;29;20394;-94
2023/12/22 03:48:39;;;;;;;8.03;2.20;;;5.40;99.90;;;;;;4883853;29;20044;-96
2023/12/22 03:51:05;;;;;;;8.20;1.67;;;5.40;99.90;;;;;;4882886;29;20044;-93
2023/12/22 03:53:31;;;;;;;8.40;1.20;;;5.00;99.90;;;;;;4883553;29;20116;-96
2023/12/22 03:55:57;;;;;;;10.27;1.70;;;3.80;99.90;;;;;;4889380;29;20063;-96
2023/12/22 03:58:30;;;;;;;11.87;1.77;;;4.20;99.90;;;;;;4893640;29;20071;-95
2023/12/22 04:01:02;;;;;;;6.57;1.40;;;5.50;99.90;;;;;;4892771;29;20044;-92
2023/12/22 04:03:27;;;;;;;10.97;2.00;;;5.40;99.90;;;;;;4884402;29;20052;-95
2023/12/22 04:05:53;;;;;;;8.33;1.90;;;6.40;99.90;;;;;;4885928;29;20072;-94
2023/12/22 04:08:36;;;;;;;7.87;1.60;;;5.30;99.90;;;;;;4884962;29;20091;-94
2023/12/22 04:11:02;;;;;;;10.90;1.83;;;6.20;99.90;;;;;;4885782;29;20052;-93
2023/12/22 04:13:28;;;;;;;9.00;2.17;;;5.30;99.90;;;;;;4893756;29;20049;-95
2023/12/22 04:15:54;;;;;;;14.17;2.03;;;5.40;99.90;;;;;;4897111;29;20064;-94
2023/12/22 04:18:22;;;;;;;10.63;2.07;;;5.70;99.90;;;;;;4897086;29;20053;-92
2023/12/22 04:21:03;;;;;;;9.20;1.60;;;6.90;99.90;;;;;;4896134;29;20073;-92
2023/12/22 04:23:28;;;;;;;13.60;2.10;;;5.20;99.90;;;;;;4899365;29;20139;-94
2023/12/22 04:26:02;;;;;;;14.50;2.43;;;4.40;99.90;;;;;;4900019;29;20409;-94
2023/12/22 04:28:28;;;;;;;9.77;1.87;;;4.20;99.90;;;;;;4901222;29;20056;-92
2023/12/22 04:31:00;;;;;;;13.00;2.17;;;5.20;99.90;;;;;;4888692;29;20060;-94
2023/12/22 04:33:26;;;;;;;13.63;2.73;;;5.50;99.90;;;;;;4884471;29;20131;-94
2023/12/22 04:35:51;;;;;;;15.33;2.33;;;5.40;99.90;;;;;;4887567;29;20083;-93
2023/12/22 04:38:17;;;;;;;13.23;2.50;;;6.30;99.90;;;;;;4887215;29;20051;-93
2023/12/22 04:40:43;;;;;;;12.63;2.10;;;5.90;99.90;;;;;;4885687;29;20405;-93
2023/12/22 04:43:09;;;;;;;10.50;2.93;;;5.10;99.90;;;;;;4885514;29;20136;-95
2023/12/22 04:45:35;;;;;;;14.37;2.60;;;5.20;99.90;;;;;;4887364;29;20095;-91
2023/12/22 04:48:00;;;;;;;13.40;2.20;;;6.70;99.90;;;;;;4885370;29;20048;-94
2023/12/22 04:50:26;;;;;;;20.23;2.37;;;5.30;99.90;;;;;;4884651;29;20080;-93
2023/12/22 04:53:01;;;;;;;15.20;2.30;;;6.70;99.90;;;;;;4888393;29;20099;-95
2023/12/22 04:55:26;;;;;;;24.40;2.93;;;6.30;99.90;;;;;;4888671;29;20104;-93
2023/12/22 04:57:52;;;;;;;11.17;2.10;;;6.60;99.90;;;;;;4885682;29;20048;-93
2023/12/22 05:00:24;;;;;;;13.27;2.90;;;6.00;99.90;;;;;;4890911;29;20060;-96
2023/12/22 05:02:59;;;;;;;14.20;2.57;;;5.30;99.90;;;;;;4918350;29;20110;-94
2023/12/22 05:05:30;;;;;;;15.90;2.27;;;5.50;99.90;;;;;;4902947;29;20056;-93
2023/12/22 05:07:57;;;;;;;13.17;2.20;;;5.40;99.90;;;;;;4903683;29;20056;-94
2023/12/22 05:10:22;;;;;;;16.17;2.40;;;4.90;99.90;;;;;;4903698;29;20051;-94
2023/12/22 05:12:48;;;;;;;9.97;2.00;;;5.30;99.90;;;;;;4905733;29;20392;-96
2023/12/22 05:15:14;;;;;;;12.57;1.80;;;6.00;99.90;;;;;;4904665;29;20048;-94
2023/12/22 05:17:40;;;;;;;14.97;2.80;;;4.90;99.90;;;;;;4903576;29;20099;-93
2023/12/22 05:20:07;;;;;;;13.17;2.37;;;7.00;99.90;;;;;;4903619;29;20076;-96
2023/12/22 05:22:32;;;;;;;12.77;2.17;;;5.50;99.90;;;;;;4905208;29;20509;-95
2023/12/22 05:24:58;;;;;;;14.13;2.10;;;5.70;99.90;;;;;;4903330;29;20131;-95
2023/12/22 05:27:26;;;;;;;13.37;2.37;;;5.80;99.90;;;;;;4905787;29;20060;-95
2023/12/22 05:29:51;;;;;;;15.77;2.70;;;7.30;99.90;;;;;;4903755;29;20100;-94
2023/12/22 05:32:27;;;;;;;16.13;3.10;;;6.10;99.90;;;;;;4904212;29;20048;-95
2023/12/22 05:35:01;;;;;;;15.07;2.70;;;7.30;99.90;;;;;;4905665;29;20131;-93
2023/12/22 05:37:37;;;;;;;16.77;2.87;;;5.20;99.90;;;;;;4905499;29;20048;-94
2023/12/22 05:40:09;;;;;;;8.70;2.20;;;7.70;99.90;;;;;;4953624;23;20131;-94
2023/12/22 05:42:38;;;;;;;8.90;2.30;;;5.80;99.90;;;;;;4884921;29;20048;-95
2023/12/22 05:45:14;;;;;;;15.03;2.30;;;5.70;99.90;;;;;;4894907;29;20033;-92
2023/12/22 05:47:40;;;;;;;13.27;2.33;;;7.80;99.90;;;;;;4907798;29;20044;-92
2023/12/22 05:50:07;;;;;;;13.20;2.23;;;7.60;99.90;;;;;;4906787;29;20052;-95
2023/12/22 05:52:33;;;;;;;12.67;2.27;;;6.10;99.90;;;;;;4904486;29;20055;-94
2023/12/22 05:54:59;;;;;;;11.07;2.20;;;6.10;99.90;;;;;;4886888;29;20095;-93
2023/12/22 05:57:25;;;;;;;13.07;2.03;;;7.20;99.90;;;;;;4886984;29;20040;-95
2023/12/22 05:59:51;;;;;;;11.23;2.23;;;6.30;99.90;;;;;;4901112;29;20104;-94
2023/12/22 06:02:17;;;;;;;11.70;1.87;;;5.50;99.90;;;;;;4886264;29;20044;-95
2023/12/22 06:04:43;;;;;;;11.03;2.33;;;6.20;99.90;;;;;;4885228;29;20048;-94
2023/12/22 06:07:12;;;;;;;11.80;1.87;;;5.90;99.90;;;;;;4886217;29;20040;-94
2023/12/22 06:09:39;;;;;;;13.00;2.53;;;6.20;99.90;;;;;;4885153;29;20108;-95
2023/12/22 06:12:07;;;;;;;11.53;2.40;;;7.90;99.90;;;;;;4884631;29;20136;-94
2023/12/22 06:14:34;;;;;;;10.60;1.60;;;6.20;99.90;;;;;;4903289;29;20039;-93
2023/12/22 06:17:00;;;;;;;12.20;2.57;;;7.50;99.90;;;;;;4890922;29;20048;-96
2023/12/22 06:19:38;;;;;;;11.63;2.40;;;7.50;99.90;;;;;;4901321;23;20023;-93
2023/12/22 06:22:16;;;;;;;14.00;2.17;;;5.70;99.90;;;;;;4910319;29;20092;-96
2023/12/22 06:24:42;;;;;;;12.17;2.07;;;6.80;99.90;;;;;;4903069;29;20052;-95
2023/12/22 06:27:11;;;;;;;13.23;2.80;;;7.60;99.90;;;;;;4906685;29;20140;-95
2023/12/22 06:29:39;;;;;;;15.63;2.67;;;6.10;99.90;;;;;;4905840;29;20044;-96
2023/12/22 06:32:06;;;;;;;9.37;2.20;;;5.10;99.90;;;;;;4908768;29;20051;-93
2023/12/22 06:34:47;;;;;;;11.63;2.43;;;6.10;99.90;;;;;;4906144;29;20047;-94
2023/12/22 06:37:36;;;;;;;11.63;2.20;;;5.90;99.90;;;;;;4924729;29;20052;-95
2023/12/22 06:40:02;;;;;;;15.50;2.20;;;6.00;99.90;;;;;;4923341;29;20050;-95
2023/12/22 06:42:45;;;;;;;13.07;2.60;;;6.10;99.90;;;;;;4922916;29;20043;-96
2023/12/22 06:45:11;;;;;;;16.00;2.25;;;6.20;99.90;;;;;;4921685;29;20047;-95
2023/12/22 06:47:37;;;;;;;10.57;1.93;;;6.30;99.90;;;;;;4921958;29;20388;-94
2023/12/22 06:50:06;;;;;;;12.27;2.00;;;5.80;99.90;;;;;;4921955;29;20074;-96
2023/12/22 06:53:24;;;;;;;10.50;2.27;;;6.10;99.90;;;;;;4961769;23;20143;-94
2023/12/22 06:55:56;;;;;;;12.27;2.30;;;7.40;99.90;;;;;;4913327;29;20087;-94
2023/12/22 06:58:33;;;;;;;12.17;2.17;;;7.60;99.90;;;;;;4918428;29;20054;-96
2023/12/22 07:01:03;;;;;;;12.50;2.80;;;6.00;99.90;;;;;;4905175;23;20053;-94
2023/12/22 07:03:54;;;;;;;9.77;2.33;;;6.20;99.90;;;;;;4883065;29;20063;-95
2023/12/22 07:06:22;;;;;;;9.73;2.47;;;6.20;99.90;;;;;;4882850;29;20112;-94
2023/12/22 07:09:20;;;;;;;17.33;1.83;;;7.50;99.90;;;;;;4883737;29;20156;-94
2023/12/22 07:11:55;;;;;;;10.23;1.80;;;7.40;99.90;;;;;;4884457;29;20048;-93
2023/12/22 07:14:35;;;;;;;10.03;1.83;;;7.50;99.90;;;;;;4883811;29;20088;-95
2023/12/22 07:17:04;;;;;;;12.73;1.97;;;6.10;99.90;;;;;;4888046;29;20139;-96
2023/12/22 07:19:42;;;;;;;12.03;2.03;;;6.10;99.90;;;;;;4882220;29;20040;-91
2023/12/22 07:22:08;;;;;;;18.13;3.33;;;7.90;99.90;;;;;;4881544;29;20517;-84
2023/12/22 07:24:34;;;;;;;10.20;1.80;;;6.20;99.90;;;;;;4876782;29;20212;-86
2023/12/22 07:26:59;;;;;;;12.27;2.00;;;7.70;99.90;;;;;;4880226;29;20128;-85
2023/12/22 07:29:25;;;;;;;13.13;1.87;;;7.30;99.90;;;;;;4881377;29;20040;-86
2023/12/22 07:31:51;;;;;;;10.03;2.00;;;6.20;99.90;;;;;;4896060;29;20529;-86
2023/12/22 07:34:18;;;;;;;13.20;2.37;;;6.50;99.90;;;;;;4879971;29;20044;-85
2023/12/22 07:36:46;;;;;;;13.97;2.23;;;6.20;99.90;;;;;;4897004;29;20044;-86
2023/12/22 07:39:12;;;;;;;12.70;2.00;;;6.30;99.90;;;;;;4867481;29;20156;-84
2023/12/22 07:41:37;;;;;;;17.30;3.33;;;6.10;99.90;;;;;;4897717;29;20080;-86
2023/12/22 07:44:03;;;;;;;12.90;2.50;;;6.20;99.90;;;;;;4863124;29;20060;-85
2023/12/22 07:46:29;;;;;;;12.33;2.43;;;6.30;99.90;;;;;;4892865;29;20041;-83
2023/12/22 07:48:54;;;;;;;16.63;2.80;;;7.50;99.90;;;;;;4880071;29;20052;-84
2023/12/22 07:51:20;;;;;;;15.30;2.20;;;6.20;99.90;;;;;;4876153;29;20048;-84
2023/12/22 07:53:46;;;;;;;14.33;2.80;;;6.20;99.90;;;;;;4878588;29;20037;-84
2023/12/22 07:56:12;;;;;;;15.70;2.63;;;6.20;99.90;;;;;;4880272;29;20131;-83
2023/12/22 07:58:38;;;;;;;14.60;2.70;;;6.30;99.90;;;;;;4880419;29;20044;-83
2023/12/22 08:01:05;;;;;;;12.87;2.70;;;7.60;99.90;;;;;;4879153;29;20053;-83
2023/12/22 08:03:32;;;;;;;15.30;2.53;;;6.20;99.90;;;;;;4880426;29;20123;-84
2023/12/22 08:05:57;;;;;;;18.27;3.07;;;6.20;99.90;;;;;;4879231;29;20053;-84
2023/12/22 08:08:23;;;;;;;15.00;2.90;;;6.20;99.90;;;;;;4882720;29;20437;-84
2023/12/22 08:10:51;;;;;;;18.23;2.57;;;6.20;99.90;;;;;;4884196;29;20493;-92
2023/12/22 08:13:17;;;;;;;13.57;2.97;;;6.20;99.90;;;;;;4890262;29;20413;-84
2023/12/22 08:15:43;;;;;;;16.00;3.03;;;6.20;99.90;;;;;;4881310;29;20079;-84
2023/12/22 08:18:12;;;;;;;19.40;7.87;;;7.70;99.90;;;;;;4876312;29;20052;-86
2023/12/22 08:20:38;;;;;;;14.07;3.40;;;5.80;99.90;;;;;;4884485;29;20494;-85
2023/12/22 08:23:03;;;;;;;17.40;4.27;;;6.60;99.90;;;;;;4899874;29;20045;-86
2023/12/22 08:25:44;;;;;;;11.67;3.63;;;5.90;99.90;;;;;;4883814;29;20054;-86
2023/12/22 08:28:12;;;;;;;27.43;6.77;;;8.20;99.90;;;;;;4883111;29;20131;-90
2023/12/22 08:30:37;;;;;;;21.20;4.03;;;5.80;99.90;;;;;;4883856;29;20140;-89
2023/12/22 08:33:09;;;;;;;14.13;3.80;;;7.90;99.90;;;;;;4883974;29;20127;-90
2023/12/22 08:35:35;;;;;;;22.43;6.03;;;6.80;99.90;;;;;;4881995;29;20053;-90
2023/12/22 08:38:13;;;;;;;19.53;4.50;;;7.00;99.90;;;;;;4883789;29;20040;-90
2023/12/22 08:40:39;;;;;;;16.73;4.03;;;6.30;99.90;;;;;;4885008;29;20048;-89
2023/12/22 08:43:08;;;;;;;17.17;3.20;;;7.10;99.90;;;;;;4885333;29;20049;-88
2023/12/22 08:45:34;;;;;;;20.60;3.87;;;7.40;99.90;;;;;;4918885;29;20032;-88
2023/12/22 08:48:00;;;;;;;15.40;3.40;;;6.10;99.90;;;;;;4906069;29;20045;-87
2023/12/22 08:50:26;;;;;;;17.43;3.10;;;5.80;99.90;;;;;;4895598;29;20187;-87
2023/12/22 08:52:52;;;;;;;12.40;2.83;;;7.90;99.90;;;;;;4888693;29;20112;-88
2023/12/22 08:55:17;;;;;;;17.70;3.47;;;6.20;99.90;;;;;;4889875;29;20053;-87
2023/12/22 08:57:43;;;;;;;16.67;3.80;;;6.70;99.90;;;;;;4885099;29;20468;-87
2023/12/22 09:00:18;;;;;;;18.37;5.17;;;6.30;99.90;;;;;;4900501;29;20120;-88
2023/12/22 09:02:44;;;;;;;11.63;2.60;;;6.30;99.90;;;;;;4883255;29;20096;-87
2023/12/22 09:05:10;;;;;;;15.90;3.53;;;5.90;99.90;;;;;;4883152;29;20164;-87
2023/12/22 09:07:39;;;;;;;14.43;2.33;;;6.20;99.90;;;;;;4883984;29;20037;-88
2023/12/22 09:10:05;;;;;;;9.33;2.30;;;6.10;99.90;;;;;;4899761;29;20119;-86
2023/12/22 09:12:30;;;;;;;11.57;1.97;;;6.30;99.90;;;;;;4883808;29;20485;-86
2023/12/22 09:15:14;;;;;;;8.97;1.70;;;7.70;99.90;;;;;;4883032;29;20108;-87
2023/12/22 09:17:41;;;;;;;11.10;2.17;;;6.30;99.90;;;;;;4882495;29;20049;-87
2023/12/22 09:20:16;;;;;;;9.83;1.77;;;6.30;99.90;;;;;;4881670;29;20552;-87
2023/12/22 09:22:41;;;;;;;10.47;2.50;;;6.30;99.90;;;;;;4883532;29;20131;-87
2023/12/22 09:25:16;;;;;;;7.93;1.77;;;5.40;99.90;;;;;;4882613;29;20132;-87
2023/12/22 09:27:45;;;;;;;6.23;1.40;;;6.40;99.90;;;;;;4883548;29;20048;-86
2023/12/22 09:30:11;;;;;;;8.13;1.50;;;6.70;99.90;;;;;;4882750;29;20048;-87
2023/12/22 09:32:37;;;;;;;11.57;2.50;;;6.50;99.90;;;;;;4882227;29;20051;-87
2023/12/22 09:35:03;;;;;;;7.77;1.67;;;7.10;99.90;;;;;;4883747;29;20071;-86
2023/12/22 09:37:29;;;;;;;8.83;1.60;;;6.50;99.90;;;;;;4882126;29;20497;-84
2023/12/22 09:40:07;;;;;;;8.27;1.43;;;6.70;99.90;;;;;;4883589;29;20059;-85
2023/12/22 09:42:46;;;;;;;8.60;1.70;;;6.60;99.90;;;;;;4882761;29;20100;-85
2023/12/22 09:45:21;;;;;;;8.00;1.50;;;6.30;99.90;;;;;;4882262;29;20489;-85
2023/12/22 09:48:05;;;;;;;4.93;1.60;;;7.50;99.90;;;;;;4889605;29;20053;-85
2023/12/22 09:50:30;;;;;;;6.43;1.70;;;6.60;99.90;;;;;;4882622;29;20056;-85
2023/12/22 09:53:00;;;;;;;8.90;1.50;;;7.60;99.90;;;;;;4881498;29;20400;-85
2023/12/22 09:55:33;;;;;;;4.53;1.20;;;8.30;99.90;;;;;;4882825;29;20520;-84
2023/12/22 09:58:01;;;;;;;9.80;1.50;;;7.70;99.90;;;;;;4878801;29;20151;-85
2023/12/22 10:00:42;;;;;;;5.80;1.40;;;6.30;99.90;;;;;;4863470;29;20140;-87
2023/12/22 10:03:10;;;;;;;8.60;2.17;;;5.20;99.90;;;;;;4880269;29;20053;-84
2023/12/22 10:05:41;;;;;;;13.23;4.60;;;6.20;99.90;;;;;;4880163;29;20076;-84
2023/12/22 10:08:22;;;;;;;7.87;1.87;;;6.20;99.90;;;;;;4863533;29;20101;-84
2023/12/22 10:10:52;;;;;;;12.27;4.50;;;6.30;99.90;;;;;;4886419;29;20041;-84
2023/12/22 10:13:18;;;;;;;8.27;1.60;;;8.10;99.90;;;;;;4881082;29;20473;-84
2023/12/22 10:15:55;;;;;;;7.63;1.77;;;7.80;99.90;;;;;;4882062;29;20140;-83
2023/12/22 10:18:21;;;;;;;8.57;1.70;;;6.10;99.90;;;;;;4882268;29;20052;-84
2023/12/22 10:21:01;;;;;;;9.20;1.93;;;8.30;99.90;;;;;;4895960;29;20501;-88
2023/12/22 10:23:26;;;;;;;11.47;3.57;;;8.20;99.90;;;;;;4897215;29;20048;-85
2023/12/22 10:26:00;;;;;;;9.70;2.83;;;7.40;99.90;;;;;;4881924;29;20056;-87
2023/12/22 10:28:38;;;;;;;10.23;3.13;;;8.30;99.90;;;;;;4881118;29;20131;-84
2023/12/22 10:31:06;;;;;;;8.80;2.53;;;8.20;99.90;;;;;;4881089;29;20076;-84
2023/12/22 10:33:48;;;;;;;15.47;8.80;;;6.60;99.90;;;;;;4897144;29;20485;-83
2023/12/22 10:36:14;;;;;;;14.17;4.93;;;7.00;99.90;;;;;;4881535;29;20071;-82
2023/12/22 10:38:46;;;;;;;9.40;2.20;;;6.40;99.90;;;;;;4881705;29;20045;-83
2023/12/22 10:41:11;;;;;;;11.40;2.10;;;8.20;99.90;;;;;;4895456;29;20060;-83
2023/12/22 10:43:40;;;;;;;13.27;3.47;;;8.40;99.90;;;;;;4898258;29;20060;-83
2023/12/22 10:46:08;;;;;;;14.83;2.80;;;8.30;99.90;;;;;;4873585;29;20052;-83
2023/12/22 10:48:34;;;;;;;11.87;2.47;;;7.70;99.90;;;;;;4885450;29;20528;-83
2023/12/22 10:50:59;;;;;;;12.43;2.40;;;5.40;99.90;;;;;;4880368;29;20056;-83
2023/12/22 10:53:25;;;;;;;12.53;2.17;;;6.60;99.90;;;;;;4881364;29;20060;-83
2023/12/22 10:56:16;;;;;;;13.40;3.03;;;6.50;99.90;;;;;;5124172;23;20022;-85
2023/12/22 10:58:42;;;;;;;15.63;2.57;;;5.90;99.90;;;;;;4899763;29;20048;-83
2023/12/22 11:01:11;;;;;;;9.50;2.10;;;6.50;99.90;;;;;;4894958;29;20036;-83
2023/12/22 11:03:39;;;;;;;9.07;2.43;;;6.50;99.90;;;;;;4897125;29;20063;-81
2023/12/22 11:06:14;;;;;;;10.83;2.00;;;6.50;99.90;;;;;;4910078;29;20052;-83
2023/12/22 11:08:56;;;;;;;12.20;2.30;;;6.60;99.90;;;;;;4895344;29;20143;-82
2023/12/22 11:11:33;;;;;;;11.80;2.20;;;6.50;99.90;;;;;;4897538;29;20048;-82
2023/12/22 11:14:03;;;;;;;11.03;1.97;;;6.20;99.90;;;;;;4896388;29;20036;-82
2023/12/22 11:16:30;;;;;;;10.03;2.30;;;6.50;99.90;;;;;;4891388;29;20080;-82
2023/12/22 11:18:56;;;;;;;12.53;2.77;;;6.50;99.90;;;;;;4897453;29;20364;-83
2023/12/22 11:21:22;;;;;;;15.60;2.73;;;6.50;99.90;;;;;;4897610;29;20123;-83
2023/12/22 11:23:51;;;;;;;10.17;1.90;;;6.50;99.90;;;;;;4897852;29;20068;-83
2023/12/22 11:26:18;;;;;;;9.43;2.40;;;7.20;99.90;;;;;;4898465;29;20048;-83
2023/12/22 11:28:48;;;;;;;12.30;2.27;;;6.50;99.90;;;;;;4899235;29;20047;-85
2023/12/22 11:31:15;;;;;;;10.53;1.97;;;6.50;99.90;;;;;;4897518;29;20048;-82
2023/12/22 11:33:46;;;;;;;13.93;2.20;;;6.50;99.90;;;;;;4898874;29;20055;-81
2023/12/22 11:36:13;;;;;;;9.27;2.00;;;6.60;99.90;;;;;;4897687;29;20406;-82
2023/12/22 11:38:43;;;;;;;7.77;1.50;;;6.60;99.90;;;;;;4898673;29;20044;-81
2023/12/22 11:41:16;;;;;;;10.07;1.80;;;6.60;99.90;;;;;;4899349;29;20048;-82
2023/12/22 11:43:44;;;;;;;7.53;1.65;;;8.30;99.90;;;;;;4914844;29;20056;-82
2023/12/22 11:46:10;;;;;;;7.80;1.70;;;6.70;99.90;;;;;;4897909;29;20084;-81
2023/12/22 11:48:50;;;;;;;7.83;1.67;;;7.70;99.90;;;;;;4899973;29;20116;-83
2023/12/22 11:51:17;;;;;;;9.77;1.90;;;6.30;99.90;;;;;;4898220;29;20058;-81
2023/12/22 11:53:43;;;;;;;7.17;1.60;;;6.70;99.90;;;;;;4899197;29;20055;-81
2023/12/22 11:56:09;;;;;;;6.83;1.33;;;6.70;99.90;;;;;;4898750;29;20068;-84
2023/12/22 11:58:54;;;;;;;6.73;1.60;;;6.80;99.90;;;;;;4898422;29;20047;-84
2023/12/22 12:02:05;;;;;;;7.33;1.53;;;6.80;99.90;;;;;;4903052;23;20059;-85
2023/12/22 12:04:31;;;;;;;9.43;2.13;;;6.80;99.90;;;;;;4881198;29;20052;-84
2023/12/22 12:08:14;;;;;;;5.77;1.47;;;6.60;99.90;;;;;;4879530;29;20105;-83
2023/12/22 12:10:49;;;;;;;7.47;1.43;;;6.80;99.90;;;;;;4872513;29;20193;-85
2023/12/22 12:13:28;;;;;;;5.53;1.30;;;6.60;99.90;;;;;;4861781;29;20060;-84
2023/12/22 12:15:56;;;;;;;4.90;1.40;;;7.30;99.90;;;;;;4861685;29;20520;-83
2023/12/22 12:18:44;;;;;;;5.43;1.60;;;6.80;99.90;;;;;;4861817;29;20072;-85
2023/12/22 12:21:11;;;;;;;8.67;1.60;;;6.90;99.90;;;;;;4817660;29;20556;-84
2023/12/22 12:23:46;;;;;;;9.30;1.70;;;6.80;99.90;;;;;;4861620;29;20049;-84
2023/12/22 12:26:28;;;;;;;8.37;1.60;;;8.10;99.90;;;;;;4860716;29;20060;-83
2023/12/22 12:28:56;;;;;;;5.67;1.30;;;8.10;99.90;;;;;;4861450;29;20080;-84
2023/12/22 12:31:51;;;;;;;6.33;1.60;;;8.40;99.90;;;;;;4860087;29;20065;-85
2023/12/22 12:34:32;;;;;;;9.20;2.57;;;6.50;99.90;;;;;;4875892;29;20521;-85
2023/12/22 12:37:13;;;;;;;11.03;3.07;;;6.80;99.90;;;;;;4876685;29;20085;-85
2023/12/22 12:39:50;;;;;;;8.80;2.03;;;6.30;99.90;;;;;;4880207;29;20041;-85
2023/12/22 12:42:28;;;;;;;8.90;2.40;;;6.90;99.90;;;;;;4879455;29;20048;-85
2023/12/22 12:44:54;;;;;;;5.90;1.40;;;6.40;99.90;;;;;;4878809;29;20064;-85
2023/12/22 12:47:28;;;;;;;7.07;2.10;;;6.60;99.90;;;;;;4864268;29;20076;-85
2023/12/22 12:49:59;;;;;;;9.73;1.80;;;6.50;99.90;;;;;;4880468;29;20048;-85
2023/12/22 12:52:28;;;;;;;10.63;2.17;;;5.90;99.90;;;;;;4880454;29;20212;-85
2023/12/22 12:55:09;;;;;;;9.87;2.77;;;7.80;99.90;;;;;;4879990;29;20157;-85
2023/12/22 12:58:26;;;;;;;8.93;2.70;;;6.80;99.90;;;;;;4901599;23;20048;-84
2023/12/22 13:01:55;;;;;;;11.00;2.27;;;6.50;99.90;;;;;;4882866;29;20479;-84
2023/12/22 13:04:46;;;;;;;11.13;2.07;;;6.30;99.90;;;;;;4883272;29;20067;-85
2023/12/22 13:07:14;;;;;;;10.60;1.97;;;6.90;99.90;;;;;;4882881;29;20060;-84
2023/12/22 13:09:49;;;;;;;9.67;2.33;;;6.80;99.90;;;;;;4883251;29;20044;-85
2023/12/22 13:12:28;;;;;;;11.30;1.90;;;8.70;99.90;;;;;;4883764;29;20112;-85
2023/12/22 13:15:06;;;;;;;8.90;1.80;;;7.60;99.90;;;;;;4883339;29;20492;-85
2023/12/22 13:18:13;;;;;;;7.73;1.90;;;7.00;99.90;;;;;;4882855;29;20135;-85
2023/12/22 13:21:05;;;;;;;11.80;1.97;;;6.60;99.90;;;;;;4809249;29;20145;-85
2023/12/22 13:23:45;;;;;;;12.53;1.97;;;6.40;99.90;;;;;;4757604;29;20099;-85
2023/12/22 13:29:48;;;;;;;9.37;2.20;;;7.20;99.90;;;;;;4841202;29;20137;-84
2023/12/22 13:32:53;;;;;;;9.47;1.90;;;8.30;99.90;;;;;;4882378;29;20061;-84
2023/12/22 13:35:37;;;;;;;8.37;1.90;;;6.30;99.90;;;;;;4863857;29;20135;-85
2023/12/22 13:38:12;;;;;;;8.05;2.10;;;8.20;99.90;;;;;;4865960;29;20398;-85
2023/12/22 13:40:47;;;;;;;9.53;2.10;;;6.60;99.90;;;;;;4864632;29;20438;-85
2023/12/22 13:44:09;;;;;;;;;;;;;;;;;;;;;
2023/12/22 13:46:14;;;;;;;9.43;2.27;;;6.80;99.90;;;;;;4868189;29;20616;-85